sensor_id;sensor_type;location;lat;lon;timestamp;pressure;altitude;pressure_sealevel;temperature;humidity
62634;BME280;48704;50.534;6.442;2023-06-14T00:00:52;95354.97;;;15.62;58.70
62634;BME280;48704;50.534;6.442;2023-06-14T00:03:18;95362.63;;;15.67;58.91
62634;BME280;48704;50.534;6.442;2023-06-14T00:05:47;95362.13;;;15.63;59.08
62634;BME280;48704;50.534;6.442;2023-06-14T00:08:13;95360.09;;;15.63;59.44
62634;BME280;48704;50.534;6.442;2023-06-14T00:10:39;95357.78;;;15.67;58.83
62634;BME280;48704;50.534;6.442;2023-06-14T00:13:07;95360.63;;;15.51;58.96
62634;BME280;48704;50.534;6.442;2023-06-14T00:15:32;95359.09;;;15.50;60.09
62634;BME280;48704;50.534;6.442;2023-06-14T00:17:58;95357.06;;;15.45;59.46
62634;BME280;48704;50.534;6.442;2023-06-14T00:20:27;95366.53;;;15.36;60.47
62634;BME280;48704;50.534;6.442;2023-06-14T00:22:53;95357.59;;;15.37;61.25
62634;BME280;48704;50.534;6.442;2023-06-14T00:25:19;95354.81;;;15.26;61.23
62634;BME280;48704;50.534;6.442;2023-06-14T00:27:44;95358.19;;;15.19;61.53
62634;BME280;48704;50.534;6.442;2023-06-14T00:30:10;95358.19;;;15.19;61.40
62634;BME280;48704;50.534;6.442;2023-06-14T00:32:36;95358.19;;;15.19;62.05
62634;BME280;48704;50.534;6.442;2023-06-14T00:35:01;95361.25;;;15.10;62.37
62634;BME280;48704;50.534;6.442;2023-06-14T00:37:26;95349.53;;;15.00;62.20
62634;BME280;48704;50.534;6.442;2023-06-14T00:39:51;95362.31;;;14.74;63.71
62634;BME280;48704;50.534;6.442;2023-06-14T00:42:27;95356.97;;;14.70;64.34
62634;BME280;48704;50.534;6.442;2023-06-14T00:44:52;95355.94;;;14.84;63.46
62634;BME280;48704;50.534;6.442;2023-06-14T00:47:18;95356.97;;;14.64;64.51
62634;BME280;48704;50.534;6.442;2023-06-14T00:49:45;95365.91;;;14.68;63.79
62634;BME280;48704;50.534;6.442;2023-06-14T00:52:10;95360.53;;;14.76;62.73
62634;BME280;48704;50.534;6.442;2023-06-14T00:54:37;95358.22;;;14.86;62.25
62634;BME280;48704;50.534;6.442;2023-06-14T00:57:03;95357.19;;;14.89;61.74
62634;BME280;48704;50.534;6.442;2023-06-14T00:59:28;95358.25;;;14.75;63.19
62634;BME280;48704;50.534;6.442;2023-06-14T01:01:54;95361.06;;;14.75;63.55
62634;BME280;48704;50.534;6.442;2023-06-14T01:04:19;95359.53;;;14.74;63.70
62634;BME280;48704;50.534;6.442;2023-06-14T01:07:02;95360.50;;;14.93;62.57
62634;BME280;48704;50.534;6.442;2023-06-14T01:10:03;95359.78;;;14.42;65.21
62634;BME280;48704;50.534;6.442;2023-06-14T01:12:52;95358.75;;;14.62;64.82
62634;BME280;48704;50.534;6.442;2023-06-14T01:15:20;95360.78;;;14.73;63.56
62634;BME280;48704;50.534;6.442;2023-06-14T01:17:49;95359.00;;;14.64;62.91
62634;BME280;48704;50.534;6.442;2023-06-14T01:20:17;95361.28;;;14.54;63.98
62634;BME280;48704;50.534;6.442;2023-06-14T01:22:52;95356.19;;;14.58;65.27
62634;BME280;48704;50.534;6.442;2023-06-14T01:25:18;95363.84;;;14.41;65.58
62634;BME280;48704;50.534;6.442;2023-06-14T01:27:53;95355.16;;;14.39;64.84
62634;BME280;48704;50.534;6.442;2023-06-14T01:30:19;95359.78;;;14.42;63.96
62634;BME280;48704;50.534;6.442;2023-06-14T01:32:46;95356.69;;;14.29;64.54
62634;BME280;48704;50.534;6.442;2023-06-14T01:35:11;95357.94;;;14.28;65.07
62634;BME280;48704;50.534;6.442;2023-06-14T01:37:37;95362.53;;;14.25;65.51
62634;BME280;48704;50.534;6.442;2023-06-14T01:40:05;95355.88;;;14.12;66.88
62634;BME280;48704;50.534;6.442;2023-06-14T01:42:36;95356.66;;;14.07;68.18
62634;BME280;48704;50.534;6.442;2023-06-14T01:45:04;95359.97;;;14.16;67.40
62634;BME280;48704;50.534;6.442;2023-06-14T01:47:31;95365.59;;;14.11;67.04
62634;BME280;48704;50.534;6.442;2023-06-14T01:49:56;95367.09;;;14.06;67.09
62634;BME280;48704;50.534;6.442;2023-06-14T01:52:22;95369.88;;;14.00;68.18
62634;BME280;48704;50.534;6.442;2023-06-14T01:54:49;95372.66;;;13.95;68.46
62634;BME280;48704;50.534;6.442;2023-06-14T01:57:15;95376.75;;;13.94;68.57
62634;BME280;48704;50.534;6.442;2023-06-14T01:59:40;95379.28;;;13.92;68.80
62634;BME280;48704;50.534;6.442;2023-06-14T02:02:05;95368.81;;;13.81;69.29
62634;BME280;48704;50.534;6.442;2023-06-14T02:04:30;95371.56;;;13.76;70.53
62634;BME280;48704;50.534;6.442;2023-06-14T02:06:56;95378.47;;;13.80;70.29
62634;BME280;48704;50.534;6.442;2023-06-14T02:09:21;95373.75;;;13.44;72.06
62634;BME280;48704;50.534;6.442;2023-06-14T02:11:46;95374.25;;;13.36;72.31
62634;BME280;48704;50.534;6.442;2023-06-14T02:14:11;95372.44;;;13.39;72.46
62634;BME280;48704;50.534;6.442;2023-06-14T02:16:37;95371.84;;;13.72;71.03
62634;BME280;48704;50.534;6.442;2023-06-14T02:19:04;95377.41;;;13.66;70.59
62634;BME280;48704;50.534;6.442;2023-06-14T02:21:30;95374.28;;;13.48;72.31
62634;BME280;48704;50.534;6.442;2023-06-14T02:23:55;95371.78;;;13.61;70.80
62634;BME280;48704;50.534;6.442;2023-06-14T02:26:21;95375.28;;;13.45;70.65
62634;BME280;48704;50.534;6.442;2023-06-14T02:28:48;95379.00;;;13.25;72.46
62634;BME280;48704;50.534;6.442;2023-06-14T02:31:13;95370.84;;;13.21;73.05
62634;BME280;48704;50.534;6.442;2023-06-14T02:33:38;95376.06;;;13.08;73.84
62634;BME280;48704;50.534;6.442;2023-06-14T02:36:04;95370.47;;;13.08;73.49
62634;BME280;48704;50.534;6.442;2023-06-14T02:38:30;95375.84;;;13.12;72.53
62634;BME280;48704;50.534;6.442;2023-06-14T02:40:55;95374.69;;;13.24;72.05
62634;BME280;48704;50.534;6.442;2023-06-14T02:43:21;95375.75;;;13.37;71.76
62634;BME280;48704;50.534;6.442;2023-06-14T02:45:46;95373.28;;;13.51;70.98
62634;BME280;48704;50.534;6.442;2023-06-14T02:48:11;95377.41;;;13.61;70.47
62634;BME280;48704;50.534;6.442;2023-06-14T02:50:36;95382.25;;;13.66;70.74
62634;BME280;48704;50.534;6.442;2023-06-14T02:53:02;95377.63;;;13.57;71.35
62634;BME280;48704;50.534;6.442;2023-06-14T02:55:28;95390.03;;;13.45;72.53
62634;BME280;48704;50.534;6.442;2023-06-14T02:57:53;95383.16;;;13.41;72.39
62634;BME280;48704;50.534;6.442;2023-06-14T03:00:19;95388.63;;;13.18;73.50
62634;BME280;48704;50.534;6.442;2023-06-14T03:02:45;95382.91;;;13.01;74.52
62634;BME280;48704;50.534;6.442;2023-06-14T03:05:10;95392.59;;;13.06;74.61
62634;BME280;48704;50.534;6.442;2023-06-14T03:07:36;95389.34;;;13.13;74.12
62634;BME280;48704;50.534;6.442;2023-06-14T03:10:07;95392.97;;;13.19;74.24
62634;BME280;48704;50.534;6.442;2023-06-14T03:12:33;95400.63;;;13.24;73.81
62634;BME280;48704;50.534;6.442;2023-06-14T03:14:58;95401.63;;;13.21;73.19
62634;BME280;48704;50.534;6.442;2023-06-14T03:17:26;95402.63;;;13.18;74.31
62634;BME280;48704;50.534;6.442;2023-06-14T03:19:54;95402.78;;;13.09;74.59
62634;BME280;48704;50.534;6.442;2023-06-14T03:22:20;95400.44;;;13.02;75.17
62634;BME280;48704;50.534;6.442;2023-06-14T03:24:47;95400.22;;;13.05;75.81
62634;BME280;48704;50.534;6.442;2023-06-14T03:27:12;95394.25;;;12.87;74.98
62634;BME280;48704;50.534;6.442;2023-06-14T03:29:37;95401.72;;;13.01;74.34
62634;BME280;48704;50.534;6.442;2023-06-14T03:32:03;95399.94;;;12.98;75.59
62634;BME280;48704;50.534;6.442;2023-06-14T03:34:29;95402.53;;;13.07;74.94
62634;BME280;48704;50.534;6.442;2023-06-14T03:36:54;95396.03;;;13.21;73.80
62634;BME280;48704;50.534;6.442;2023-06-14T03:39:20;95402.94;;;13.26;74.15
62634;BME280;48704;50.534;6.442;2023-06-14T03:41:45;95397.34;;;13.26;74.10
62634;BME280;48704;50.534;6.442;2023-06-14T03:44:11;95401.41;;;13.25;74.38
62634;BME280;48704;50.534;6.442;2023-06-14T03:46:36;95406.38;;;13.15;74.61
62634;BME280;48704;50.534;6.442;2023-06-14T03:49:01;95402.69;;;13.29;74.20
62634;BME280;48704;50.534;6.442;2023-06-14T03:51:28;95406.47;;;13.21;75.02
62634;BME280;48704;50.534;6.442;2023-06-14T03:53:53;95413.25;;;13.14;75.47
62634;BME280;48704;50.534;6.442;2023-06-14T03:56:20;95401.28;;;13.14;75.11
62634;BME280;48704;50.534;6.442;2023-06-14T03:58:45;95412.28;;;13.17;76.10
62634;BME280;48704;50.534;6.442;2023-06-14T04:01:10;95416.16;;;13.25;75.53
62634;BME280;48704;50.534;6.442;2023-06-14T04:03:37;95409.09;;;13.41;74.34
62634;BME280;48704;50.534;6.442;2023-06-14T04:06:04;95411.13;;;13.35;74.36
62634;BME280;48704;50.534;6.442;2023-06-14T04:08:30;95408.81;;;13.33;73.97
62634;BME280;48704;50.534;6.442;2023-06-14T04:10:56;95415.97;;;13.34;75.49
62634;BME280;48704;50.534;6.442;2023-06-14T04:13:21;95410.94;;;13.50;74.46
62634;BME280;48704;50.534;6.442;2023-06-14T04:15:46;95409.91;;;13.47;74.17
62634;BME280;48704;50.534;6.442;2023-06-14T04:18:12;95422.56;;;13.31;74.87
62634;BME280;48704;50.534;6.442;2023-06-14T04:20:38;95422.47;;;13.20;77.40
62634;BME280;48704;50.534;6.442;2023-06-14T04:23:14;95423.22;;;12.84;81.28
62634;BME280;48704;50.534;6.442;2023-06-14T04:25:40;95424.66;;;13.11;80.95
62634;BME280;48704;50.534;6.442;2023-06-14T04:28:06;95429.72;;;13.06;81.61
62634;BME280;48704;50.534;6.442;2023-06-14T04:30:34;95423.00;;;13.24;81.25
62634;BME280;48704;50.534;6.442;2023-06-14T04:33:00;95421.78;;;13.31;81.07
62634;BME280;48704;50.534;6.442;2023-06-14T04:35:25;95422.59;;;13.43;80.53
62634;BME280;48704;50.534;6.442;2023-06-14T04:37:50;95421.88;;;13.48;81.56
62634;BME280;48704;50.534;6.442;2023-06-14T04:40:17;95432.00;;;13.39;83.60
62634;BME280;48704;50.534;6.442;2023-06-14T04:42:42;95424.66;;;13.48;84.54
62634;BME280;48704;50.534;6.442;2023-06-14T04:45:10;95428.72;;;13.47;85.39
62634;BME280;48704;50.534;6.442;2023-06-14T04:47:36;95432.03;;;13.45;85.83
62634;BME280;48704;50.534;6.442;2023-06-14T04:50:02;95429.84;;;13.66;83.76
62634;BME280;48704;50.534;6.442;2023-06-14T04:52:28;95438.16;;;13.49;85.35
62634;BME280;48704;50.534;6.442;2023-06-14T04:54:54;95434.41;;;13.63;84.41
62634;BME280;48704;50.534;6.442;2023-06-14T04:57:21;95444.88;;;13.74;84.67
62634;BME280;48704;50.534;6.442;2023-06-14T04:59:47;95443.19;;;13.93;85.34
62634;BME280;48704;50.534;6.442;2023-06-14T05:02:12;95440.66;;;13.95;85.80
62634;BME280;48704;50.534;6.442;2023-06-14T05:04:38;95449.91;;;14.24;85.35
62634;BME280;48704;50.534;6.442;2023-06-14T05:07:08;95441.59;;;13.70;85.67
62634;BME280;48704;50.534;6.442;2023-06-14T05:09:34;95440.59;;;13.30;88.92
62634;BME280;48704;50.534;6.442;2023-06-14T05:12:00;95444.38;;;13.70;87.08
62634;BME280;48704;50.534;6.442;2023-06-14T05:14:26;95443.16;;;13.82;84.46
62634;BME280;48704;50.534;6.442;2023-06-14T05:16:51;95438.88;;;13.92;85.17
62634;BME280;48704;50.534;6.442;2023-06-14T05:19:17;95450.53;;;13.85;85.72
62634;BME280;48704;50.534;6.442;2023-06-14T05:21:43;95447.84;;;14.19;83.35
62634;BME280;48704;50.534;6.442;2023-06-14T05:24:09;95440.75;;;14.29;81.77
62634;BME280;48704;50.534;6.442;2023-06-14T05:26:34;95447.19;;;14.57;81.23
62634;BME280;48704;50.534;6.442;2023-06-14T05:29:00;95446.19;;;14.55;80.55
62634;BME280;48704;50.534;6.442;2023-06-14T05:31:26;95442.13;;;14.73;80.36
62634;BME280;48704;50.534;6.442;2023-06-14T05:33:53;95441.88;;;14.93;78.61
62634;BME280;48704;50.534;6.442;2023-06-14T05:36:22;95438.31;;;15.20;77.54
62634;BME280;48704;50.534;6.442;2023-06-14T05:38:47;95438.75;;;15.41;73.78
62634;BME280;48704;50.534;6.442;2023-06-14T05:41:13;95441.81;;;15.49;74.31
62634;BME280;48704;50.534;6.442;2023-06-14T05:43:38;95442.34;;;15.42;75.31
62634;BME280;48704;50.534;6.442;2023-06-14T05:46:04;95450.22;;;15.54;75.13
62634;BME280;48704;50.534;6.442;2023-06-14T05:48:30;95455.03;;;15.76;78.31
62634;BME280;48704;50.534;6.442;2023-06-14T05:50:56;95449.13;;;15.91;82.48
62634;BME280;48704;50.534;6.442;2023-06-14T05:53:21;95456.97;;;16.03;82.24
62634;BME280;48704;50.534;6.442;2023-06-14T05:55:46;95458.97;;;16.20;78.22
62634;BME280;48704;50.534;6.442;2023-06-14T05:58:11;95460.97;;;16.25;78.21
62634;BME280;48704;50.534;6.442;2023-06-14T06:00:39;95465.50;;;16.39;76.23
62634;BME280;48704;50.534;6.442;2023-06-14T06:03:04;95461.63;;;16.48;74.05
62634;BME280;48704;50.534;6.442;2023-06-14T06:05:30;95460.31;;;16.54;70.71
62634;BME280;48704;50.534;6.442;2023-06-14T06:07:55;95470.00;;;16.64;70.26
62634;BME280;48704;50.534;6.442;2023-06-14T06:10:21;95468.00;;;16.95;69.42
62634;BME280;48704;50.534;6.442;2023-06-14T06:12:46;95472.22;;;16.71;69.59
62634;BME280;48704;50.534;6.442;2023-06-14T06:15:13;95469.91;;;16.76;67.93
62634;BME280;48704;50.534;6.442;2023-06-14T06:17:39;95466.94;;;16.98;65.28
62634;BME280;48704;50.534;6.442;2023-06-14T06:20:06;95467.72;;;16.98;64.44
62634;BME280;48704;50.534;6.442;2023-06-14T06:22:33;95473.00;;;17.08;64.17
62634;BME280;48704;50.534;6.442;2023-06-14T06:24:59;95469.13;;;17.11;64.27
62634;BME280;48704;50.534;6.442;2023-06-14T06:27:24;95469.00;;;17.27;62.58
62634;BME280;48704;50.534;6.442;2023-06-14T06:29:49;95470.25;;;17.02;63.47
62634;BME280;48704;50.534;6.442;2023-06-14T06:32:15;95468.81;;;17.20;63.78
62634;BME280;48704;50.534;6.442;2023-06-14T06:34:40;95477.44;;;17.27;62.33
62634;BME280;48704;50.534;6.442;2023-06-14T06:37:06;95481.22;;;17.35;61.50
62634;BME280;48704;50.534;6.442;2023-06-14T06:39:31;95479.13;;;17.42;60.63
62634;BME280;48704;50.534;6.442;2023-06-14T06:41:56;95488.16;;;17.59;59.86
62634;BME280;48704;50.534;6.442;2023-06-14T06:44:22;95488.28;;;17.78;60.25
62634;BME280;48704;50.534;6.442;2023-06-14T06:46:47;95484.78;;;17.90;60.32
62634;BME280;48704;50.534;6.442;2023-06-14T06:49:14;95493.78;;;17.89;59.85
62634;BME280;48704;50.534;6.442;2023-06-14T06:51:42;95493.13;;;18.01;59.27
62634;BME280;48704;50.534;6.442;2023-06-14T06:54:10;95498.19;;;17.84;57.79
62634;BME280;48704;50.534;6.442;2023-06-14T06:56:36;95508.97;;;17.50;58.47
62634;BME280;48704;50.534;6.442;2023-06-14T06:59:01;95503.47;;;17.93;56.83
62634;BME280;48704;50.534;6.442;2023-06-14T07:01:27;95502.28;;;17.83;56.58
62634;BME280;48704;50.534;6.442;2023-06-14T07:03:57;95502.88;;;18.00;55.72
62634;BME280;48704;50.534;6.442;2023-06-14T07:06:22;95513.56;;;17.83;56.62
62634;BME280;48704;50.534;6.442;2023-06-14T07:08:47;95513.56;;;18.08;56.79
62634;BME280;48704;50.534;6.442;2023-06-14T07:11:15;95520.06;;;18.21;57.02
62634;BME280;48704;50.534;6.442;2023-06-14T07:13:41;95512.59;;;18.24;56.53
62634;BME280;48704;50.534;6.442;2023-06-14T07:16:06;95515.06;;;18.33;56.72
62634;BME280;48704;50.534;6.442;2023-06-14T07:18:31;95514.09;;;18.49;56.62
62634;BME280;48704;50.534;6.442;2023-06-14T07:20:57;95514.81;;;18.31;56.71
62634;BME280;48704;50.534;6.442;2023-06-14T07:23:23;95514.47;;;18.40;56.53
62634;BME280;48704;50.534;6.442;2023-06-14T07:25:48;95514.34;;;18.51;57.01
62634;BME280;48704;50.534;6.442;2023-06-14T07:28:14;95516.34;;;18.32;57.46
62634;BME280;48704;50.534;6.442;2023-06-14T07:30:39;95518.13;;;18.35;56.98
62634;BME280;48704;50.534;6.442;2023-06-14T07:33:04;95518.91;;;18.54;57.17
62634;BME280;48704;50.534;6.442;2023-06-14T07:35:30;95522.28;;;18.53;57.04
62634;BME280;48704;50.534;6.442;2023-06-14T07:37:56;95532.16;;;18.59;56.75
62634;BME280;48704;50.534;6.442;2023-06-14T07:40:21;95525.19;;;18.66;56.87
62634;BME280;48704;50.534;6.442;2023-06-14T07:42:46;95524.41;;;18.65;57.44
62634;BME280;48704;50.534;6.442;2023-06-14T07:45:13;95527.59;;;18.56;58.21
62634;BME280;48704;50.534;6.442;2023-06-14T07:47:39;95526.28;;;18.57;58.23
62634;BME280;48704;50.534;6.442;2023-06-14T07:50:05;95525.47;;;18.62;57.60
62634;BME280;48704;50.534;6.442;2023-06-14T07:52:30;95514.81;;;18.74;56.60
62634;BME280;48704;50.534;6.442;2023-06-14T07:54:56;95525.94;;;19.04;56.80
62634;BME280;48704;50.534;6.442;2023-06-14T07:57:22;95526.25;;;19.00;57.43
62634;BME280;48704;50.534;6.442;2023-06-14T07:59:47;95522.56;;;19.06;55.98
62634;BME280;48704;50.534;6.442;2023-06-14T08:02:12;95522.88;;;19.02;55.92
62634;BME280;48704;50.534;6.442;2023-06-14T08:04:38;95531.84;;;18.87;56.53
62634;BME280;48704;50.534;6.442;2023-06-14T08:07:04;95531.44;;;18.78;57.13
62634;BME280;48704;50.534;6.442;2023-06-14T08:09:29;95532.03;;;19.08;56.55
62634;BME280;48704;50.534;6.442;2023-06-14T08:11:56;95532.03;;;19.08;56.38
62634;BME280;48704;50.534;6.442;2023-06-14T08:14:21;95538.59;;;18.97;55.60
62634;BME280;48704;50.534;6.442;2023-06-14T08:16:47;95535.19;;;19.36;54.53
62634;BME280;48704;50.534;6.442;2023-06-14T08:19:12;95535.66;;;19.73;54.87
62634;BME280;48704;50.534;6.442;2023-06-14T08:21:37;95538.59;;;19.80;53.43
62634;BME280;48704;50.534;6.442;2023-06-14T08:24:03;95532.13;;;19.98;52.66
62634;BME280;48704;50.534;6.442;2023-06-14T08:26:29;95537.09;;;19.79;53.62
62634;BME280;48704;50.534;6.442;2023-06-14T08:28:55;95538.28;;;19.84;54.57
62634;BME280;48704;50.534;6.442;2023-06-14T08:31:21;95540.13;;;19.81;53.04
62634;BME280;48704;50.534;6.442;2023-06-14T08:33:46;95541.47;;;19.93;54.19
62634;BME280;48704;50.534;6.442;2023-06-14T08:36:12;95539.94;;;19.92;52.22
62634;BME280;48704;50.534;6.442;2023-06-14T08:38:38;95537.56;;;20.10;53.43
62634;BME280;48704;50.534;6.442;2023-06-14T08:41:04;95535.63;;;20.05;52.39
62634;BME280;48704;50.534;6.442;2023-06-14T08:43:31;95528.97;;;20.28;51.28
62634;BME280;48704;50.534;6.442;2023-06-14T08:46:02;95528.63;;;20.19;51.25
62634;BME280;48704;50.534;6.442;2023-06-14T08:48:28;95534.06;;;20.17;50.69
62634;BME280;48704;50.534;6.442;2023-06-14T08:50:56;95531.25;;;20.17;49.85
62634;BME280;48704;50.534;6.442;2023-06-14T08:53:28;95529.50;;;20.27;50.14
62634;BME280;48704;50.534;6.442;2023-06-14T08:55:54;95535.41;;;20.55;50.70
62634;BME280;48704;50.534;6.442;2023-06-14T08:58:20;95533.88;;;20.54;49.68
62634;BME280;48704;50.534;6.442;2023-06-14T09:00:49;95527.31;;;20.07;49.59
62634;BME280;48704;50.534;6.442;2023-06-14T09:03:15;95540.81;;;20.00;49.44
62634;BME280;48704;50.534;6.442;2023-06-14T09:05:40;95534.75;;;20.36;48.54
62634;BME280;48704;50.534;6.442;2023-06-14T09:08:06;95538.88;;;20.35;48.03
62634;BME280;48704;50.534;6.442;2023-06-14T09:10:32;95540.94;;;20.61;47.71
62634;BME280;48704;50.534;6.442;2023-06-14T09:13:02;95545.63;;;20.72;44.70
62634;BME280;48704;50.534;6.442;2023-06-14T09:15:29;95542.03;;;20.71;43.24
62634;BME280;48704;50.534;6.442;2023-06-14T09:17:54;95539.31;;;20.65;43.23
62634;BME280;48704;50.534;6.442;2023-06-14T09:20:20;95549.09;;;20.78;43.21
62634;BME280;48704;50.534;6.442;2023-06-14T09:22:46;95540.63;;;20.78;42.86
62634;BME280;48704;50.534;6.442;2023-06-14T09:25:11;95547.59;;;20.77;43.74
62634;BME280;48704;50.534;6.442;2023-06-14T09:27:40;95544.47;;;21.01;43.30
62634;BME280;48704;50.534;6.442;2023-06-14T09:30:09;95540.25;;;20.94;42.60
62634;BME280;48704;50.534;6.442;2023-06-14T09:32:41;95532.38;;;21.00;44.42
62634;BME280;48704;50.534;6.442;2023-06-14T09:35:07;95541.00;;;20.95;44.13
62634;BME280;48704;50.534;6.442;2023-06-14T09:37:33;95551.00;;;21.09;43.92
62634;BME280;48704;50.534;6.442;2023-06-14T09:39:59;95544.66;;;21.16;44.22
62634;BME280;48704;50.534;6.442;2023-06-14T09:42:25;95548.09;;;21.56;43.65
62634;BME280;48704;50.534;6.442;2023-06-14T09:44:52;95549.56;;;21.50;43.29
62634;BME280;48704;50.534;6.442;2023-06-14T09:47:18;95552.59;;;21.93;42.04
62634;BME280;48704;50.534;6.442;2023-06-14T09:49:44;95545.25;;;21.98;41.90
62634;BME280;48704;50.534;6.442;2023-06-14T09:52:17;95555.72;;;22.03;40.77
62634;BME280;48704;50.534;6.442;2023-06-14T09:54:43;95553.72;;;22.40;40.96
62634;BME280;48704;50.534;6.442;2023-06-14T09:57:12;95546.72;;;22.12;41.99
62634;BME280;48704;50.534;6.442;2023-06-14T09:59:40;95557.47;;;22.34;40.42
62634;BME280;48704;50.534;6.442;2023-06-14T10:02:21;95550.16;;;21.97;40.66
62634;BME280;48704;50.534;6.442;2023-06-14T10:05:12;95546.56;;;21.97;40.65
62634;BME280;48704;50.534;6.442;2023-06-14T10:07:56;95553.34;;;21.94;41.23
62634;BME280;48704;50.534;6.442;2023-06-14T10:10:25;95552.22;;;22.75;39.58
62634;BME280;48704;50.534;6.442;2023-06-14T10:12:51;95553.63;;;22.89;38.25
62634;BME280;48704;50.534;6.442;2023-06-14T10:15:30;95555.28;;;22.48;38.05
62634;BME280;48704;50.534;6.442;2023-06-14T10:18:52;95545.38;;;23.14;37.22
62634;BME280;48704;50.534;6.442;2023-06-14T10:21:15;95555.69;;;23.40;36.53
62634;BME280;48704;50.534;6.442;2023-06-14T10:23:45;95562.91;;;23.41;35.77
62634;BME280;48704;50.534;6.442;2023-06-14T10:26:18;95560.47;;;22.57;36.57
62634;BME280;48704;50.534;6.442;2023-06-14T10:28:57;95562.13;;;23.40;35.15
62634;BME280;48704;50.534;6.442;2023-06-14T10:31:40;95554.09;;;23.08;36.92
62634;BME280;48704;50.534;6.442;2023-06-14T10:34:06;95556.09;;;23.51;35.77
62634;BME280;48704;50.534;6.442;2023-06-14T10:36:32;95562.25;;;24.24;36.53
62634;BME280;48704;50.534;6.442;2023-06-14T10:39:14;95557.03;;;23.46;35.17
62634;BME280;48704;50.534;6.442;2023-06-14T10:41:40;95561.88;;;23.74;34.92
62634;BME280;48704;50.534;6.442;2023-06-14T10:46:38;95559.22;;;23.76;35.02
62634;BME280;48704;50.534;6.442;2023-06-14T10:49:03;95554.28;;;23.92;33.63
62634;BME280;48704;50.534;6.442;2023-06-14T10:51:29;95558.34;;;23.30;33.68
62634;BME280;48704;50.534;6.442;2023-06-14T10:53:56;95545.38;;;23.88;33.48
62634;BME280;48704;50.534;6.442;2023-06-14T10:56:28;95538.34;;;24.50;33.71
62634;BME280;48704;50.534;6.442;2023-06-14T10:58:56;95550.06;;;24.69;33.08
62634;BME280;48704;50.534;6.442;2023-06-14T11:03:56;95545.63;;;25.39;33.18
62634;BME280;48704;50.534;6.442;2023-06-14T11:06:22;95545.31;;;24.72;32.37
62634;BME280;48704;50.534;6.442;2023-06-14T11:09:11;95553.75;;;25.50;31.96
62634;BME280;48704;50.534;6.442;2023-06-14T11:11:42;95547.97;;;25.25;31.83
62634;BME280;48704;50.534;6.442;2023-06-14T11:14:07;95557.75;;;26.04;31.13
62634;BME280;48704;50.534;6.442;2023-06-14T11:16:33;95546.44;;;25.96;30.89
62634;BME280;48704;50.534;6.442;2023-06-14T11:19:00;95541.84;;;26.43;30.25
62634;BME280;48704;50.534;6.442;2023-06-14T11:21:25;95541.31;;;25.95;31.54
62634;BME280;48704;50.534;6.442;2023-06-14T11:23:56;95539.75;;;26.19;31.37
62634;BME280;48704;50.534;6.442;2023-06-14T11:26:31;95533.31;;;25.28;31.93
62634;BME280;48704;50.534;6.442;2023-06-14T11:28:59;95541.03;;;26.01;30.75
62634;BME280;48704;50.534;6.442;2023-06-14T11:31:25;95534.41;;;26.23;30.28
62634;BME280;48704;50.534;6.442;2023-06-14T11:33:53;95529.06;;;25.77;30.65
62634;BME280;48704;50.534;6.442;2023-06-14T11:36:19;95549.22;;;25.79;31.14
62634;BME280;48704;50.534;6.442;2023-06-14T11:38:44;95543.91;;;26.68;29.35
62634;BME280;48704;50.534;6.442;2023-06-14T11:41:10;95548.06;;;27.36;28.76
62634;BME280;48704;50.534;6.442;2023-06-14T11:43:35;95545.16;;;27.53;28.76
62634;BME280;48704;50.534;6.442;2023-06-14T11:46:01;95542.69;;;26.36;28.79
62634;BME280;48704;50.534;6.442;2023-06-14T11:48:41;95539.81;;;27.93;29.13
62634;BME280;48704;50.534;6.442;2023-06-14T11:51:07;95535.75;;;27.96;27.96
62634;BME280;48704;50.534;6.442;2023-06-14T11:53:32;95529.19;;;26.88;28.21
62634;BME280;48704;50.534;6.442;2023-06-14T11:55:58;95539.00;;;26.95;28.07
62634;BME280;48704;50.534;6.442;2023-06-14T11:58:25;95527.88;;;27.34;28.11
62634;BME280;48704;50.534;6.442;2023-06-14T12:00:50;95539.75;;;26.19;29.12
62634;BME280;48704;50.534;6.442;2023-06-14T12:03:16;95551.53;;;27.34;27.89
62634;BME280;48704;50.534;6.442;2023-06-14T12:05:42;95539.19;;;26.62;28.45
62634;BME280;48704;50.534;6.442;2023-06-14T12:08:08;95543.97;;;28.10;27.19
62634;BME280;48704;50.534;6.442;2023-06-14T12:10:41;95535.06;;;27.52;27.61
62634;BME280;48704;50.534;6.442;2023-06-14T12:13:09;95526.06;;;27.82;27.78
62634;BME280;48704;50.534;6.442;2023-06-14T12:15:35;95535.84;;;27.08;28.37
62634;BME280;48704;50.534;6.442;2023-06-14T12:18:00;95528.13;;;27.72;26.95
62634;BME280;48704;50.534;6.442;2023-06-14T12:20:30;95531.63;;;27.09;27.49
62634;BME280;48704;50.534;6.442;2023-06-14T12:22:57;95530.88;;;27.09;28.18
62634;BME280;48704;50.534;6.442;2023-06-14T12:25:32;95530.84;;;27.26;27.37
62634;BME280;48704;50.534;6.442;2023-06-14T12:27:58;95541.66;;;27.01;27.74
62634;BME280;48704;50.534;6.442;2023-06-14T12:30:24;95544.63;;;27.91;26.49
62634;BME280;48704;50.534;6.442;2023-06-14T12:32:49;95538.06;;;28.44;26.52
62634;BME280;48704;50.534;6.442;2023-06-14T12:35:16;95540.78;;;28.61;25.92
62634;BME280;48704;50.534;6.442;2023-06-14T12:37:42;95540.69;;;28.23;25.84
62634;BME280;48704;50.534;6.442;2023-06-14T12:40:07;95542.47;;;28.74;25.53
62634;BME280;48704;50.534;6.442;2023-06-14T12:42:33;95541.69;;;28.64;25.14
62634;BME280;48704;50.534;6.442;2023-06-14T12:45:02;95542.28;;;28.07;25.61
62634;BME280;48704;50.534;6.442;2023-06-14T12:47:28;95547.19;;;29.08;25.31
62634;BME280;48704;50.534;6.442;2023-06-14T12:49:53;95538.38;;;28.68;25.72
62634;BME280;48704;50.534;6.442;2023-06-14T12:52:18;95524.53;;;29.12;24.96
62634;BME280;48704;50.534;6.442;2023-06-14T12:54:44;95532.34;;;29.60;25.30
62634;BME280;48704;50.534;6.442;2023-06-14T12:57:09;95540.00;;;28.42;24.64
62634;BME280;48704;50.534;6.442;2023-06-14T12:59:35;95536.72;;;27.72;25.83
62634;BME280;48704;50.534;6.442;2023-06-14T13:02:17;95538.13;;;29.02;24.53
62634;BME280;48704;50.534;6.442;2023-06-14T13:04:43;95538.19;;;29.72;24.05